GMTT/TNG METAR and TAF weather

Enter ICAO airport designator
Station Type Date Time Source
GMTT METAR 2020/07/11 21:30 UTC NOAA

GMTT 112130Z 09022KT CAVOK 27/17 Q1009 NOSIG


Station Type Date Time Source
GMTT Decoded METAR 2020/07/11 21:30 UTC NOAA

Tanger Aerodrome , Morocco (GMTT) 35-44N 005-54W 21M
Jul 11, 2020 - 05:30 PM EDT / 2020.07.11 2130 UTC
Wind: from the E (090 degrees) at 25 MPH (22 KT):0
Visibility: greater than 7 mile(s):0
Temperature: 80 F (27 C)
Dew Point: 62 F (17 C)
Relative Humidity: 54%
Pressure (altimeter): 29.80 in. Hg (1009 hPa)
ob: GMTT 112130Z 09022KT CAVOK 27/17 Q1009 NOSIG
cycle: 21

Station Type Date Time Source
GMTT TAF 2020/07/11 18:21 UTC NOAA

TAF GMTT 111700Z 1118/1224 08020KT CAVOK PROB40
TEMPO 1118/1204 09020G30KT

Example: see airport list